Time;durP1;ratioP1;P1;durP2;ratioP2;P2;SDS_P1;SDS_P2;PMS_P1;PMS_P2;Temp;Humidity;BMP_temperature;BMP_pressure;BME280_temperature;BME280_humidity;BME280_pressure;Samples;Min_cycle;Max_cycle;Signal;HPM_P1;HPM_P2
2021/01/22 00:01:41;;;;;;;0.20;0.20;;;5.00;99.90;;;;;;4946657;28;21428;-96
2021/01/22 00:04:07;;;;;;;0.20;0.20;;;4.90;99.90;;;;;;4961752;28;20303;-93
2021/01/22 00:06:33;;;;;;;0.17;0.17;;;4.90;99.90;;;;;;4963090;28;20730;-96
2021/01/22 00:08:58;;;;;;;0.30;0.30;;;4.90;99.90;;;;;;4961613;28;20197;-94
2021/01/22 00:11:24;;;;;;;1.03;0.93;;;4.90;99.90;;;;;;4931597;28;20184;-93
2021/01/22 00:13:50;;;;;;;0.50;0.50;;;4.90;99.90;;;;;;4962389;28;20226;-94
2021/01/22 00:16:16;;;;;;;0.30;0.30;;;4.90;99.90;;;;;;4961510;28;21120;-94
2021/01/22 00:18:41;;;;;;;0.93;0.93;;;4.90;99.90;;;;;;4962116;28;20208;-94
2021/01/22 00:21:07;;;;;;;0.80;0.80;;;4.90;99.90;;;;;;4929707;28;20192;-92
2021/01/22 00:23:37;;;;;;;0.30;0.30;;;4.90;99.90;;;;;;4978432;28;20351;-96
2021/01/22 00:26:04;;;;;;;0.57;0.40;;;4.90;99.90;;;;;;4961440;28;20248;-94
2021/01/22 00:28:30;;;;;;;0.83;0.83;;;4.90;99.90;;;;;;4976650;28;20212;-95
2021/01/22 00:30:55;;;;;;;0.50;0.50;;;4.90;99.90;;;;;;4939723;28;20678;-93
2021/01/22 00:33:21;;;;;;;0.30;0.30;;;4.80;99.90;;;;;;4945868;28;20252;-96
2021/01/22 00:35:47;;;;;;;0.30;0.30;;;4.90;99.90;;;;;;4962665;28;20222;-94
2021/01/22 00:38:13;;;;;;;0.20;0.20;;;4.90;99.90;;;;;;4959781;28;20220;-92
2021/01/22 00:40:39;;;;;;;0.30;0.30;;;4.90;99.90;;;;;;4960450;28;21133;-94
2021/01/22 00:43:04;;;;;;;0.93;0.53;;;4.80;99.90;;;;;;4961401;28;20212;-93
2021/01/22 00:45:30;;;;;;;0.30;0.30;;;4.90;99.90;;;;;;4944609;28;20244;-96
2021/01/22 00:47:56;;;;;;;0.73;0.57;;;4.90;99.90;;;;;;4961496;28;20185;-94
2021/01/22 00:50:22;;;;;;;0.50;0.50;;;4.80;99.90;;;;;;4962776;28;20192;-93
2021/01/22 00:52:48;;;;;;;0.33;0.33;;;4.80;99.90;;;;;;4960306;28;20259;-93
2021/01/22 00:55:14;;;;;;;3.73;0.93;;;4.80;99.90;;;;;;4960868;28;21980;-91
2021/01/22 00:57:39;;;;;;;0.30;0.30;;;4.80;99.90;;;;;;4939263;28;20231;-95
2021/01/22 01:00:08;;;;;;;0.20;0.20;;;4.80;99.90;;;;;;4945866;28;20266;-93
2021/01/22 01:02:35;;;;;;;0.43;0.43;;;4.80;99.90;;;;;;4962211;28;20188;-94
2021/01/22 01:05:00;;;;;;;0.40;0.40;;;4.80;99.90;;;;;;4960149;28;20660;-93
2021/01/22 01:07:26;;;;;;;0.33;0.33;;;4.80;99.90;;;;;;4944836;28;20240;-93
2021/01/22 01:09:52;;;;;;;0.23;0.23;;;4.70;99.90;;;;;;4961444;28;20228;-94
2021/01/22 01:12:17;;;;;;;1.13;0.70;;;4.70;99.90;;;;;;4960321;28;20686;-94
2021/01/22 01:14:43;;;;;;;3.20;0.70;;;4.70;99.90;;;;;;4945849;28;20201;-94
2021/01/22 01:17:09;;;;;;;0.77;0.60;;;4.70;99.90;;;;;;4976748;28;20223;-95
2021/01/22 01:19:34;;;;;;;0.30;0.30;;;4.70;99.90;;;;;;4945368;28;20223;-95
2021/01/22 01:22:00;;;;;;;2.70;0.40;;;4.70;99.90;;;;;;4944257;28;20244;-94
2021/01/22 01:24:26;;;;;;;0.23;0.23;;;4.70;99.90;;;;;;4962626;28;21065;-93
2021/01/22 01:26:52;;;;;;;0.30;0.30;;;4.70;99.90;;;;;;4941780;28;20323;-93
2021/01/22 01:29:17;;;;;;;0.30;0.30;;;4.70;99.90;;;;;;4949628;28;20196;-93
2021/01/22 01:31:43;;;;;;;25.57;1.07;;;4.70;99.90;;;;;;4979823;28;20768;-92
2021/01/22 01:34:09;;;;;;;0.20;0.20;;;4.70;99.90;;;;;;4980438;28;20220;-94
2021/01/22 01:36:34;;;;;;;0.47;0.47;;;4.70;99.90;;;;;;4932242;28;20252;-93
2021/01/22 01:39:00;;;;;;;0.53;0.53;;;4.70;99.90;;;;;;4962861;28;20665;-93
2021/01/22 01:41:26;;;;;;;0.20;0.20;;;4.80;99.90;;;;;;4966075;28;20247;-94
2021/01/22 01:43:52;;;;;;;0.50;0.50;;;4.80;99.90;;;;;;4964206;28;21066;-93
2021/01/22 01:46:18;;;;;;;0.63;0.60;;;4.80;99.90;;;;;;4949000;28;20230;-93
2021/01/22 01:48:44;;;;;;;0.20;0.20;;;4.80;99.90;;;;;;4963670;28;20291;-92
2021/01/22 01:51:10;;;;;;;0.57;0.57;;;4.80;99.90;;;;;;4965714;28;20662;-93
2021/01/22 01:53:36;;;;;;;0.23;0.23;;;4.80;99.90;;;;;;4931518;28;20244;-92
2021/01/22 01:56:02;;;;;;;0.30;0.30;;;4.90;99.90;;;;;;4928654;29;20236;-93
2021/01/22 01:58:29;;;;;;;2.33;0.37;;;4.90;99.90;;;;;;4944109;28;20368;-94
2021/01/22 02:00:55;;;;;;;0.50;0.40;;;4.90;99.90;;;;;;4960710;28;20221;-94
2021/01/22 02:03:21;;;;;;;0.70;0.70;;;4.90;99.90;;;;;;4928998;29;20248;-92
2021/01/22 02:05:47;;;;;;;0.20;0.20;;;4.90;99.90;;;;;;4930141;29;20629;-93
2021/01/22 02:08:14;;;;;;;1.00;1.00;;;4.80;99.90;;;;;;4928965;29;20593;-93
2021/01/22 02:10:40;;;;;;;0.50;0.50;;;4.80;99.90;;;;;;4945232;28;20219;-92
2021/01/22 02:13:07;;;;;;;0.63;0.63;;;4.80;99.90;;;;;;4945210;29;20221;-93
2021/01/22 02:15:33;;;;;;;0.90;0.60;;;4.90;99.90;;;;;;4944202;28;20726;-91
2021/01/22 02:18:00;;;;;;;0.37;0.37;;;4.90;99.90;;;;;;4912860;28;20210;-90
2021/01/22 02:20:32;;;;;;;0.20;0.20;;;4.90;99.90;;;;;;4945686;28;20189;-93
2021/01/22 02:22:58;;;;;;;1.37;1.33;;;4.90;99.90;;;;;;4944685;28;20221;-92
2021/01/22 02:25:37;;;;;;;0.67;0.57;;;4.90;99.90;;;;;;4928354;28;20284;-93
2021/01/22 02:28:14;;;;;;;0.40;0.40;;;4.90;99.90;;;;;;4960993;28;20213;-93
2021/01/22 02:30:44;;;;;;;4.87;0.53;;;4.90;99.90;;;;;;4960564;28;20595;-92
2021/01/22 02:33:12;;;;;;;0.30;0.30;;;4.90;99.90;;;;;;4960478;28;20220;-92
2021/01/22 02:35:39;;;;;;;0.77;0.50;;;4.90;99.90;;;;;;4929841;29;20348;-92
2021/01/22 02:38:06;;;;;;;0.20;0.20;;;4.90;99.90;;;;;;4943559;29;20270;-93
2021/01/22 02:40:35;;;;;;;0.30;0.30;;;4.90;99.90;;;;;;4953703;28;20224;-90
2021/01/22 02:43:02;;;;;;;5.30;0.60;;;4.90;99.90;;;;;;4956259;28;20665;-92
2021/01/22 02:45:29;;;;;;;0.20;0.20;;;4.90;99.90;;;;;;4956155;28;20328;-91
2021/01/22 02:47:56;;;;;;;0.20;0.20;;;4.90;99.90;;;;;;4939584;28;20215;-91
2021/01/22 02:50:32;;;;;;;0.47;0.47;;;4.90;99.90;;;;;;4944700;28;20679;-92
2021/01/22 02:53:05;;;;;;;0.80;0.70;;;4.90;99.90;;;;;;4943020;28;20236;-91
2021/01/22 02:55:33;;;;;;;0.10;0.10;;;4.80;99.90;;;;;;4942960;29;20268;-92
2021/01/22 02:58:30;;;;;;;0.20;0.20;;;4.80;99.90;;;;;;4944315;29;20216;-92
2021/01/22 03:01:03;;;;;;;0.37;0.33;;;4.80;99.90;;;;;;4944147;28;20267;-92
2021/01/22 03:03:53;;;;;;;0.20;0.20;;;4.80;99.90;;;;;;4943098;29;20229;-91
2021/01/22 03:06:31;;;;;;;0.10;0.10;;;4.80;99.90;;;;;;4944785;28;20245;-91
2021/01/22 03:09:00;;;;;;;0.30;0.30;;;4.80;99.90;;;;;;4943904;28;20189;-92
2021/01/22 03:11:27;;;;;;;0.20;0.20;;;4.90;99.90;;;;;;4944702;29;20220;-90
2021/01/22 03:13:57;;;;;;;1.80;0.73;;;4.80;99.90;;;;;;4942312;29;20281;-89
2021/01/22 03:16:24;;;;;;;0.30;0.30;;;4.80;99.90;;;;;;4943683;28;20224;-91
2021/01/22 03:18:58;;;;;;;0.73;0.73;;;4.90;99.90;;;;;;4943946;28;20228;-89
2021/01/22 03:21:23;;;;;;;0.50;0.50;;;4.80;99.90;;;;;;4927859;29;20221;-89
2021/01/22 03:23:49;;;;;;;0.77;0.77;;;4.90;99.90;;;;;;4945962;28;20277;-90
2021/01/22 03:26:15;;;;;;;0.50;0.50;;;4.90;99.90;;;;;;4926206;29;20247;-88
2021/01/22 03:28:40;;;;;;;3.20;1.10;;;4.90;99.90;;;;;;4918415;29;20690;-90
2021/01/22 03:31:06;;;;;;;6.03;1.57;;;4.80;99.90;;;;;;4942313;29;20996;-90
2021/01/22 03:33:32;;;;;;;0.30;0.30;;;4.80;99.90;;;;;;4942900;29;20213;-90
2021/01/22 03:35:58;;;;;;;0.80;0.80;;;4.80;99.90;;;;;;4927125;28;20190;-91
2021/01/22 03:38:24;;;;;;;0.20;0.20;;;4.80;99.90;;;;;;4926381;29;20234;-90
2021/01/22 03:40:49;;;;;;;0.20;0.20;;;4.80;99.90;;;;;;4926300;28;20695;-91
2021/01/22 03:43:15;;;;;;;0.67;0.40;;;4.80;99.90;;;;;;4926432;28;20706;-90
2021/01/22 03:45:41;;;;;;;3.03;0.40;;;4.80;99.90;;;;;;4927050;29;20229;-90
2021/01/22 03:48:07;;;;;;;0.93;0.30;;;4.70;99.90;;;;;;4943000;28;20201;-90
2021/01/22 03:50:33;;;;;;;0.27;0.27;;;4.70;99.90;;;;;;4928193;29;20189;-90
2021/01/22 03:52:58;;;;;;;0.30;0.30;;;4.70;99.90;;;;;;4953662;28;20244;-89
2021/01/22 03:55:24;;;;;;;0.70;0.70;;;4.60;99.90;;;;;;4944628;28;20228;-90
2021/01/22 03:57:50;;;;;;;0.70;0.70;;;4.60;99.90;;;;;;4945212;28;20220;-91
2021/01/22 04:00:16;;;;;;;0.87;0.87;;;4.50;99.90;;;;;;4960536;28;20220;-90
2021/01/22 04:02:42;;;;;;;1.90;1.13;;;4.50;99.90;;;;;;4961665;28;20188;-92
2021/01/22 04:05:08;;;;;;;4.53;1.13;;;4.50;99.90;;;;;;4959959;28;20266;-91
2021/01/22 04:07:34;;;;;;;0.57;0.40;;;4.50;99.90;;;;;;4960039;28;20694;-90
2021/01/22 04:09:59;;;;;;;2.57;2.40;;;4.60;99.90;;;;;;4975916;28;20290;-90
2021/01/22 04:12:25;;;;;;;3.07;0.70;;;4.60;99.90;;;;;;4961248;28;20231;-90
2021/01/22 04:14:51;;;;;;;0.30;0.30;;;4.60;99.90;;;;;;4961619;28;20209;-90
2021/01/22 04:17:17;;;;;;;1.30;1.17;;;4.70;99.90;;;;;;4961431;28;20214;-91
2021/01/22 04:19:43;;;;;;;0.43;0.43;;;4.70;99.90;;;;;;4960344;28;20221;-91
2021/01/22 04:22:09;;;;;;;0.90;0.90;;;4.80;99.90;;;;;;4975406;28;20237;-90
2021/01/22 04:24:35;;;;;;;0.33;0.33;;;4.80;99.90;;;;;;4959766;28;20279;-90
2021/01/22 04:27:01;;;;;;;0.37;0.37;;;4.80;99.90;;;;;;4976002;28;20267;-88
2021/01/22 04:29:26;;;;;;;4.13;1.17;;;4.90;99.90;;;;;;4961400;28;20204;-90
2021/01/22 04:31:52;;;;;;;1.33;1.33;;;5.00;99.90;;;;;;4960334;28;20673;-90
2021/01/22 04:34:18;;;;;;;1.87;1.60;;;5.00;99.90;;;;;;4959984;28;20227;-90
2021/01/22 04:36:44;;;;;;;0.40;0.40;;;5.00;99.90;;;;;;4959663;28;20307;-90
2021/01/22 04:39:10;;;;;;;1.23;1.23;;;5.10;99.90;;;;;;4959311;28;20718;-90
2021/01/22 04:41:35;;;;;;;0.60;0.60;;;5.10;99.90;;;;;;4954129;28;20271;-90
2021/01/22 04:44:02;;;;;;;0.50;0.50;;;5.00;99.90;;;;;;4945776;28;21028;-89
2021/01/22 04:46:33;;;;;;;1.87;1.60;;;5.00;99.90;;;;;;4944579;28;20220;-90
2021/01/22 04:49:00;;;;;;;9.53;1.33;;;5.00;99.90;;;;;;4960491;28;20220;-90
2021/01/22 04:51:28;;;;;;;0.97;0.50;;;5.00;99.90;;;;;;4960308;28;20224;-89
2021/01/22 04:53:59;;;;;;;0.97;0.97;;;5.00;99.90;;;;;;4961190;28;20263;-90
2021/01/22 04:56:26;;;;;;;5.33;0.90;;;5.10;99.90;;;;;;4963318;28;20228;-91
2021/01/22 04:58:56;;;;;;;2.10;1.23;;;5.10;99.90;;;;;;4960524;28;20319;-90
2021/01/22 05:01:22;;;;;;;1.53;0.90;;;5.20;99.90;;;;;;4963158;28;20275;-90
2021/01/22 05:03:48;;;;;;;4.63;0.77;;;5.10;99.90;;;;;;4978350;28;20224;-88
2021/01/22 05:06:17;;;;;;;0.90;0.83;;;5.10;99.90;;;;;;4964066;28;20220;-91
2021/01/22 05:08:43;;;;;;;2.87;0.53;;;5.10;99.90;;;;;;4949977;28;20188;-89
2021/01/22 05:11:08;;;;;;;0.60;0.60;;;5.20;99.90;;;;;;4948076;28;20576;-90
2021/01/22 05:13:36;;;;;;;1.47;1.07;;;5.20;99.90;;;;;;4980806;28;20220;-91
2021/01/22 05:16:14;;;;;;;0.50;0.50;;;5.20;99.90;;;;;;4964440;28;20228;-90
2021/01/22 05:18:40;;;;;;;0.27;0.27;;;5.20;99.90;;;;;;4948761;28;20235;-91
2021/01/22 05:21:11;;;;;;;4.13;0.90;;;5.10;99.90;;;;;;4964531;28;20682;-91
2021/01/22 05:23:38;;;;;;;4.80;0.53;;;5.10;99.90;;;;;;4964653;28;20254;-90
2021/01/22 05:26:10;;;;;;;0.90;0.83;;;5.10;99.90;;;;;;4963463;28;20228;-91
2021/01/22 05:28:45;;;;;;;0.50;0.50;;;5.10;99.90;;;;;;4962052;28;20223;-89
2021/01/22 05:31:13;;;;;;;0.93;0.93;;;5.10;99.90;;;;;;4954746;28;20252;-93
2021/01/22 05:33:40;;;;;;;1.47;1.43;;;5.10;99.90;;;;;;4962393;28;20274;-90
2021/01/22 05:36:25;;;;;;;0.20;0.20;;;5.00;99.90;;;;;;4963190;28;20297;-93
2021/01/22 05:38:52;;;;;;;1.60;1.07;;;5.00;99.90;;;;;;4956805;28;20185;-89
2021/01/22 05:41:18;;;;;;;4.63;0.90;;;5.00;99.90;;;;;;4941959;28;20184;-93
2021/01/22 05:43:44;;;;;;;0.70;0.70;;;5.00;99.90;;;;;;4963989;28;20231;-90
2021/01/22 05:46:15;;;;;;;0.83;0.83;;;5.00;99.90;;;;;;4942358;28;20216;-91
2021/01/22 05:48:42;;;;;;;1.13;0.97;;;5.00;99.90;;;;;;4978997;28;20244;-91
2021/01/22 05:51:08;;;;;;;0.40;0.40;;;5.00;99.90;;;;;;4959772;28;20302;-92
2021/01/22 05:53:46;;;;;;;0.67;0.67;;;5.00;99.90;;;;;;4964572;28;20228;-92
2021/01/22 05:56:17;;;;;;;0.53;0.53;;;5.00;99.90;;;;;;4963155;28;20520;-91
2021/01/22 05:58:47;;;;;;;0.53;0.53;;;5.00;99.90;;;;;;4964019;28;20259;-92
2021/01/22 06:01:16;;;;;;;0.67;0.67;;;4.90;99.90;;;;;;4963007;28;20312;-91
2021/01/22 06:03:47;;;;;;;6.53;0.87;;;5.00;99.90;;;;;;4960690;28;20220;-92
2021/01/22 06:06:14;;;;;;;6.67;1.80;;;5.00;99.90;;;;;;4946560;28;20243;-91
2021/01/22 06:08:53;;;;;;;1.93;0.70;;;5.00;99.90;;;;;;4948117;28;20192;-90
2021/01/22 06:11:26;;;;;;;3.07;0.97;;;5.00;99.90;;;;;;4978014;28;20530;-90
2021/01/22 06:13:54;;;;;;;0.80;0.80;;;5.00;99.90;;;;;;4964095;28;20256;-91
2021/01/22 06:16:22;;;;;;;3.10;1.80;;;5.00;99.90;;;;;;4976802;28;20220;-91
2021/01/22 06:19:09;;;;;;;1.17;0.93;;;5.00;99.90;;;;;;4961902;28;20227;-89
2021/01/22 06:21:57;;;;;;;4.07;1.00;;;5.00;99.90;;;;;;4961387;28;20221;-90
2021/01/22 06:24:24;;;;;;;21.03;2.57;;;4.90;99.90;;;;;;4962660;28;21055;-90
2021/01/22 06:26:50;;;;;;;2.43;0.60;;;4.90;99.90;;;;;;4963384;28;20201;-92
2021/01/22 06:29:17;;;;;;;1.17;0.53;;;4.90;99.90;;;;;;4946399;28;20219;-90
2021/01/22 06:31:44;;;;;;;0.50;0.50;;;4.90;99.90;;;;;;4961035;28;20255;-91
2021/01/22 06:34:11;;;;;;;1.07;1.07;;;4.90;99.90;;;;;;4962469;28;20229;-92
2021/01/22 06:36:42;;;;;;;8.90;1.20;;;4.90;99.90;;;;;;4963243;28;20705;-90
2021/01/22 06:39:08;;;;;;;0.83;0.63;;;4.90;99.90;;;;;;4944636;28;20295;-91
2021/01/22 06:41:35;;;;;;;0.50;0.50;;;4.90;99.90;;;;;;4963313;28;20197;-91
2021/01/22 06:44:01;;;;;;;3.40;0.73;;;4.90;99.90;;;;;;4946567;28;20222;-93
2021/01/22 06:46:28;;;;;;;2.23;0.73;;;5.00;99.90;;;;;;4978279;28;20220;-92
2021/01/22 06:48:58;;;;;;;5.07;2.60;;;5.00;99.90;;;;;;4962147;28;20283;-89
2021/01/22 06:51:26;;;;;;;3.63;2.43;;;5.00;99.90;;;;;;4962298;28;20303;-91
2021/01/22 06:54:15;;;;;;;2.17;2.07;;;5.00;99.90;;;;;;4963583;28;20263;-94
2021/01/22 06:56:47;;;;;;;0.60;0.60;;;5.10;99.90;;;;;;4962437;28;20216;-96
2021/01/22 06:59:19;;;;;;;2.40;1.10;;;5.10;99.90;;;;;;4980951;28;20224;-94
2021/01/22 07:01:45;;;;;;;0.83;0.83;;;5.10;99.90;;;;;;4964617;28;20307;-94
2021/01/22 07:04:30;;;;;;;3.20;0.80;;;5.10;99.90;;;;;;4940495;28;20236;-93
2021/01/22 07:07:01;;;;;;;3.67;0.80;;;5.10;99.90;;;;;;4947695;28;20220;-96
2021/01/22 07:09:47;;;;;;;0.30;0.30;;;5.00;99.90;;;;;;4962221;28;20223;-95
2021/01/22 07:12:32;;;;;;;5.33;0.80;;;5.00;99.90;;;;;;4963168;28;20227;-95
2021/01/22 07:14:58;;;;;;;5.33;1.13;;;4.90;99.90;;;;;;4962458;28;20196;-94
2021/01/22 07:17:33;;;;;;;1.50;1.27;;;4.90;99.90;;;;;;4964093;28;20255;-93
2021/01/22 07:20:01;;;;;;;2.33;1.87;;;4.90;99.90;;;;;;4947400;28;20216;-96
2021/01/22 07:22:28;;;;;;;2.07;1.30;;;4.90;99.90;;;;;;4961242;28;20374;-94
2021/01/22 07:24:57;;;;;;;1.03;0.60;;;4.80;99.90;;;;;;4962996;28;20775;-94
2021/01/22 07:27:23;;;;;;;12.37;1.57;;;4.80;99.90;;;;;;4961755;28;20311;-92
2021/01/22 07:30:08;;;;;;;0.40;0.40;;;4.80;99.90;;;;;;4967295;28;20189;-96
2021/01/22 07:32:34;;;;;;;0.43;0.43;;;4.80;99.90;;;;;;4964397;28;20270;-94
2021/01/22 07:35:00;;;;;;;2.33;1.17;;;4.80;99.90;;;;;;4963634;28;20287;-96
2021/01/22 07:37:34;;;;;;;1.13;0.90;;;4.80;99.90;;;;;;4947228;28;20224;-95
2021/01/22 07:40:08;;;;;;;1.17;1.17;;;4.80;99.90;;;;;;4959454;28;20264;-96
2021/01/22 07:42:34;;;;;;;2.83;2.23;;;4.80;99.90;;;;;;4963050;28;21009;-92
2021/01/22 07:45:12;;;;;;;1.70;0.97;;;4.80;99.90;;;;;;4976330;28;20247;-91
2021/01/22 07:47:41;;;;;;;2.07;1.07;;;4.80;99.90;;;;;;4962174;28;20185;-93
2021/01/22 07:50:08;;;;;;;1.83;1.73;;;4.80;99.90;;;;;;4960840;28;20216;-94
2021/01/22 07:52:43;;;;;;;6.93;1.07;;;4.70;99.90;;;;;;4961917;28;20749;-94
2021/01/22 07:55:20;;;;;;;0.80;0.73;;;4.70;99.90;;;;;;4960268;28;20224;-93
2021/01/22 07:58:02;;;;;;;8.10;1.37;;;4.70;99.90;;;;;;4973852;28;20224;-93
2021/01/22 08:00:39;;;;;;;1.77;1.17;;;4.70;99.90;;;;;;4977186;28;20216;-91
2021/01/22 08:03:05;;;;;;;1.03;0.93;;;4.70;99.90;;;;;;4959964;28;20189;-94
2021/01/22 08:05:33;;;;;;;1.37;1.33;;;4.70;99.90;;;;;;4965331;28;20287;-95
2021/01/22 08:08:00;;;;;;;1.13;0.70;;;4.70;99.90;;;;;;4960833;28;20618;-94
2021/01/22 08:10:28;;;;;;;0.60;0.60;;;4.70;99.90;;;;;;4961588;28;20240;-94
2021/01/22 08:12:56;;;;;;;0.90;0.90;;;4.70;99.90;;;;;;4976382;28;20244;-93
2021/01/22 08:15:22;;;;;;;1.90;1.60;;;4.70;99.90;;;;;;4961275;28;20228;-94
2021/01/22 08:17:49;;;;;;;0.93;0.93;;;4.90;99.90;;;;;;4947021;28;21061;-93
2021/01/22 08:20:17;;;;;;;0.70;0.67;;;5.20;99.90;;;;;;4961612;28;20212;-93
2021/01/22 08:22:49;;;;;;;1.33;1.23;;;5.60;99.90;;;;;;4961098;28;20216;-93
2021/01/22 08:25:15;;;;;;;0.57;0.57;;;5.90;99.90;;;;;;4961001;28;20247;-91
2021/01/22 08:27:41;;;;;;;1.20;1.17;;;6.00;99.90;;;;;;4961884;28;20216;-93
2021/01/22 08:30:08;;;;;;;5.33;1.20;;;5.90;99.90;;;;;;4976939;28;20205;-91
2021/01/22 08:32:34;;;;;;;1.57;1.00;;;5.90;99.90;;;;;;4930720;28;20197;-93
2021/01/22 08:35:00;;;;;;;2.70;1.53;;;5.80;99.90;;;;;;4944405;28;20221;-91
2021/01/22 08:37:26;;;;;;;1.23;0.87;;;5.80;99.90;;;;;;4960625;28;20224;-93
2021/01/22 08:39:58;;;;;;;0.60;0.47;;;5.90;99.90;;;;;;4974406;28;20220;-92
2021/01/22 08:42:29;;;;;;;0.40;0.40;;;5.90;99.90;;;;;;4959619;28;20217;-92
2021/01/22 08:45:00;;;;;;;0.93;0.93;;;5.90;99.90;;;;;;4960229;28;20216;-92
2021/01/22 08:47:28;;;;;;;1.13;0.93;;;5.80;99.90;;;;;;4963062;28;20779;-93
2021/01/22 08:49:59;;;;;;;1.07;0.80;;;5.90;99.90;;;;;;4945711;28;20216;-94
2021/01/22 08:52:26;;;;;;;0.60;0.60;;;5.80;99.90;;;;;;4960401;28;20263;-93
2021/01/22 08:54:54;;;;;;;2.47;0.87;;;5.70;99.90;;;;;;4976361;28;20209;-94
2021/01/22 08:57:21;;;;;;;4.63;1.50;;;5.70;99.90;;;;;;4944831;28;20216;-95
2021/01/22 08:59:49;;;;;;;4.17;1.27;;;5.70;99.90;;;;;;4978491;28;20256;-94
2021/01/22 09:02:14;;;;;;;3.13;0.77;;;5.80;99.90;;;;;;4959850;28;20247;-93
2021/01/22 09:04:40;;;;;;;9.13;0.80;;;5.80;99.90;;;;;;4961677;28;20232;-93
2021/01/22 09:07:16;;;;;;;1.80;0.67;;;5.80;99.90;;;;;;4958618;28;20678;-93
2021/01/22 09:09:49;;;;;;;0.47;0.47;;;5.90;99.90;;;;;;4959361;28;20212;-93
2021/01/22 09:12:31;;;;;;;1.67;1.57;;;6.00;99.90;;;;;;4942502;28;20286;-92
2021/01/22 09:15:04;;;;;;;3.90;1.53;;;6.10;99.90;;;;;;4972949;28;20330;-94
2021/01/22 09:17:36;;;;;;;1.70;1.50;;;6.00;99.90;;;;;;4973556;28;20185;-94
2021/01/22 09:20:16;;;;;;;0.40;0.40;;;6.00;99.90;;;;;;4955407;28;20243;-91
2021/01/22 09:22:43;;;;;;;13.83;1.77;;;6.00;99.90;;;;;;4953486;28;20333;-93
2021/01/22 09:25:14;;;;;;;1.90;1.23;;;6.10;99.90;;;;;;4918529;28;20244;-91
2021/01/22 09:27:41;;;;;;;0.47;0.47;;;6.10;99.90;;;;;;4960408;28;20282;-93
2021/01/22 09:30:15;;;;;;;0.83;0.63;;;6.20;99.90;;;;;;4976445;28;20555;-95
2021/01/22 09:32:45;;;;;;;2.10;1.50;;;6.40;99.90;;;;;;4946679;28;20212;-90
2021/01/22 09:35:11;;;;;;;0.73;0.73;;;6.50;99.90;;;;;;4961632;28;20576;-91
2021/01/22 09:37:37;;;;;;;1.23;1.13;;;6.50;99.90;;;;;;4942313;28;20229;-90
2021/01/22 09:40:04;;;;;;;0.77;0.77;;;6.30;99.90;;;;;;4957650;28;20632;-91
2021/01/22 09:42:30;;;;;;;1.53;1.17;;;6.30;99.90;;;;;;4960092;28;20220;-92
2021/01/22 09:44:56;;;;;;;0.80;0.80;;;6.40;99.90;;;;;;4960011;28;20239;-90
2021/01/22 09:47:21;;;;;;;5.27;0.57;;;6.40;99.90;;;;;;4980003;28;20228;-91
2021/01/22 09:49:47;;;;;;;4.20;1.07;;;6.40;99.90;;;;;;4932590;28;20259;-92
2021/01/22 09:52:14;;;;;;;2.70;0.70;;;6.40;99.90;;;;;;4945026;28;20315;-93
2021/01/22 09:54:41;;;;;;;4.57;1.90;;;6.50;99.90;;;;;;4965178;28;20236;-91
2021/01/22 09:57:08;;;;;;;1.73;1.63;;;6.60;99.90;;;;;;4963384;28;20192;-91
2021/01/22 09:59:33;;;;;;;0.63;0.63;;;6.70;99.90;;;;;;4949599;28;20196;-94
2021/01/22 10:01:59;;;;;;;1.93;1.10;;;6.60;99.90;;;;;;4947385;28;20296;-92
2021/01/22 10:04:25;;;;;;;1.50;0.83;;;6.70;99.90;;;;;;4947918;28;20248;-90
2021/01/22 10:06:50;;;;;;;1.83;1.73;;;6.80;99.90;;;;;;4965390;28;20224;-91
2021/01/22 10:09:16;;;;;;;6.13;1.17;;;6.70;99.90;;;;;;4946972;28;20231;-92
2021/01/22 10:11:43;;;;;;;0.60;0.60;;;6.60;99.90;;;;;;4932077;28;20197;-92
2021/01/22 10:14:08;;;;;;;0.20;0.20;;;6.70;99.90;;;;;;4964547;28;20220;-90
2021/01/22 10:16:35;;;;;;;0.40;0.20;;;6.60;99.90;;;;;;4947690;28;20706;-93
2021/01/22 10:19:01;;;;;;;1.80;0.50;;;6.60;99.90;;;;;;4948607;28;20251;-91
2021/01/22 10:21:27;;;;;;;0.63;0.63;;;6.80;99.90;;;;;;4963198;28;20220;-90
2021/01/22 10:23:54;;;;;;;0.83;0.83;;;6.90;99.90;;;;;;4963690;28;20199;-93
2021/01/22 10:26:22;;;;;;;3.50;1.03;;;6.90;99.90;;;;;;4931874;28;20188;-92
2021/01/22 10:28:49;;;;;;;4.97;1.77;;;6.80;99.90;;;;;;4947208;28;20232;-90
2021/01/22 10:31:15;;;;;;;5.87;0.60;;;6.80;99.90;;;;;;4947190;28;20259;-89
2021/01/22 10:33:41;;;;;;;0.83;0.83;;;6.80;99.90;;;;;;4963175;28;20212;-90
2021/01/22 10:36:07;;;;;;;1.33;1.23;;;6.90;99.90;;;;;;4945592;28;20244;-90
2021/01/22 10:38:35;;;;;;;2.80;1.47;;;6.80;99.90;;;;;;4962620;28;20240;-91
2021/01/22 10:41:04;;;;;;;1.67;1.50;;;6.90;99.90;;;;;;4946755;28;20247;-91
2021/01/22 10:43:30;;;;;;;1.07;0.60;;;6.90;99.90;;;;;;4946283;28;20279;-90
2021/01/22 10:45:57;;;;;;;2.80;0.40;;;6.80;99.90;;;;;;4962709;28;20268;-90
2021/01/22 10:48:23;;;;;;;9.03;1.80;;;6.70;99.90;;;;;;4947172;28;20220;-90
2021/01/22 10:50:50;;;;;;;2.10;0.67;;;6.70;99.90;;;;;;4964111;28;20625;-90
2021/01/22 10:53:17;;;;;;;5.17;1.53;;;6.70;99.90;;;;;;4960165;28;20642;-90
2021/01/22 10:55:47;;;;;;;2.53;0.80;;;6.80;99.90;;;;;;4965625;28;20223;-90
2021/01/22 10:58:13;;;;;;;0.53;0.53;;;6.80;99.90;;;;;;4964764;28;20228;-88
2021/01/22 11:00:39;;;;;;;1.63;0.70;;;6.70;99.90;;;;;;4983440;28;20258;-90
2021/01/22 11:03:05;;;;;;;0.47;0.47;;;6.80;99.90;;;;;;4981543;28;20208;-92
2021/01/22 11:05:32;;;;;;;0.70;0.70;;;6.80;99.90;;;;;;4966954;28;20220;-92
2021/01/22 11:07:58;;;;;;;0.97;0.47;;;6.80;99.90;;;;;;4965679;28;20226;-92
2021/01/22 11:10:25;;;;;;;6.53;1.13;;;6.70;99.90;;;;;;4965218;28;20239;-92
2021/01/22 11:12:51;;;;;;;0.70;0.70;;;6.70;99.90;;;;;;4964318;28;20232;-91
2021/01/22 11:15:17;;;;;;;2.90;0.83;;;6.50;99.90;;;;;;4983484;28;20231;-90
2021/01/22 11:17:43;;;;;;;1.13;0.50;;;6.60;99.90;;;;;;4951581;28;20181;-91
2021/01/22 11:20:09;;;;;;;0.40;0.40;;;6.60;99.90;;;;;;4964285;28;20266;-92
2021/01/22 11:22:35;;;;;;;1.37;0.93;;;6.80;99.90;;;;;;4941267;28;20374;-92
2021/01/22 11:25:02;;;;;;;1.97;1.87;;;6.90;99.90;;;;;;4980451;28;20319;-93
2021/01/22 11:27:28;;;;;;;0.37;0.37;;;6.90;99.90;;;;;;4982520;28;21026;-91
2021/01/22 11:29:54;;;;;;;17.33;1.67;;;7.00;99.90;;;;;;4965241;28;20192;-94
2021/01/22 11:32:20;;;;;;;0.53;0.53;;;7.00;99.90;;;;;;4951007;28;20603;-93
2021/01/22 11:34:46;;;;;;;1.13;0.50;;;7.00;99.90;;;;;;4966038;28;20224;-94
2021/01/22 11:37:12;;;;;;;2.87;1.03;;;6.90;99.90;;;;;;4949198;28;20561;-93
2021/01/22 11:39:38;;;;;;;0.30;0.30;;;6.80;99.90;;;;;;4979912;28;20303;-93
2021/01/22 11:42:05;;;;;;;8.50;2.90;;;6.80;99.90;;;;;;4964041;28;20520;-92
2021/01/22 11:44:31;;;;;;;12.90;0.80;;;6.80;99.90;;;;;;4965266;28;20223;-91
2021/01/22 11:46:57;;;;;;;3.70;1.03;;;7.00;99.90;;;;;;4963968;28;20219;-92
2021/01/22 11:49:23;;;;;;;1.67;1.27;;;6.90;99.90;;;;;;4981503;28;20301;-90
2021/01/22 11:51:49;;;;;;;5.60;1.70;;;6.90;99.90;;;;;;4947244;28;20306;-92
2021/01/22 11:54:15;;;;;;;2.13;1.03;;;6.90;99.90;;;;;;4965861;28;20231;-92
2021/01/22 11:56:40;;;;;;;0.63;0.63;;;6.90;99.90;;;;;;4950533;28;20214;-93
2021/01/22 11:59:09;;;;;;;1.60;1.50;;;6.90;99.90;;;;;;4981114;28;20208;-92
2021/01/22 12:01:36;;;;;;;1.33;0.80;;;6.90;99.90;;;;;;4964350;28;20211;-92
2021/01/22 12:04:02;;;;;;;1.77;1.27;;;7.00;99.90;;;;;;4963423;28;20693;-92
2021/01/22 12:06:28;;;;;;;7.73;1.13;;;7.00;99.90;;;;;;4981790;28;20227;-90
2021/01/22 12:08:53;;;;;;;5.10;0.93;;;6.90;99.90;;;;;;4948600;28;20247;-90
2021/01/22 12:11:19;;;;;;;6.70;1.60;;;6.90;99.90;;;;;;4949968;28;20188;-89
2021/01/22 12:13:45;;;;;;;1.43;0.90;;;6.90;99.90;;;;;;4981638;28;20744;-93
2021/01/22 12:16:11;;;;;;;3.37;0.77;;;7.10;99.90;;;;;;4948775;28;20255;-93
2021/01/22 12:18:37;;;;;;;11.27;1.43;;;7.10;99.90;;;;;;4964421;28;20331;-91
2021/01/22 12:21:06;;;;;;;2.00;0.87;;;7.00;99.90;;;;;;4965160;28;20312;-91
2021/01/22 12:23:31;;;;;;;3.50;2.20;;;7.00;99.90;;;;;;4948785;28;20238;-92
2021/01/22 12:25:57;;;;;;;1.33;0.97;;;6.90;99.90;;;;;;4947817;28;20236;-91
2021/01/22 12:28:23;;;;;;;0.50;0.50;;;7.00;99.90;;;;;;4948054;28;20666;-92
2021/01/22 12:30:49;;;;;;;2.27;1.43;;;7.00;99.90;;;;;;4941230;28;20259;-91
2021/01/22 12:33:15;;;;;;;2.90;1.30;;;7.00;99.90;;;;;;4945694;28;20882;-90
2021/01/22 12:35:41;;;;;;;0.77;0.60;;;7.00;99.90;;;;;;4949800;28;20705;-91
2021/01/22 12:38:06;;;;;;;8.37;1.57;;;7.00;99.90;;;;;;4946838;28;20230;-91
2021/01/22 12:40:32;;;;;;;0.60;0.60;;;6.90;99.90;;;;;;4962456;28;20224;-91
2021/01/22 12:42:58;;;;;;;2.30;1.90;;;6.90;99.90;;;;;;4964013;28;20220;-91
2021/01/22 12:45:24;;;;;;;2.97;1.17;;;6.90;99.90;;;;;;4965191;28;20232;-90
2021/01/22 12:47:52;;;;;;;0.90;0.53;;;6.90;99.90;;;;;;4966297;28;20195;-89
2021/01/22 12:50:18;;;;;;;1.20;1.13;;;6.90;99.90;;;;;;4980202;28;20220;-91
2021/01/22 12:52:44;;;;;;;2.47;0.87;;;6.90;99.90;;;;;;4980271;28;20239;-91
2021/01/22 12:55:11;;;;;;;1.10;0.57;;;6.90;99.90;;;;;;4980315;28;20226;-91
2021/01/22 12:57:37;;;;;;;1.93;0.70;;;6.80;99.90;;;;;;4947664;28;20231;-91
2021/01/22 13:00:06;;;;;;;12.77;0.80;;;6.90;99.90;;;;;;4964081;28;20180;-93
2021/01/22 13:02:33;;;;;;;1.90;0.93;;;6.80;99.90;;;;;;4964605;28;20315;-91